• Join FlightAware (Why Join?)
  • Login
  • US Flag 
02:31AM EDT


 

Airport Tracker/Info


-or-


 

Live Flight TrackerFlight Track Log ✈ CSJ672 ✈ 10-May-2013 ✈ CYHM - KCAK

Flight Track Log - Related Links

Times and Time Zones

All times are in EDT time to prevent confusion due to time zone crossing. See the CSJ672 flight status page for this flight to view local times or setup timezone preferences in your user account.

Time Position Orientation Groundspeed Altitude Reporting Facility
EDT Latitude Longitude Course Direction KTS MPH feet Rate Location/Type
11:32PM 43.1500 -79.9333 236° Southwest 80 92 1,300  Level Toronto Center
11:33PM 43.1333 -79.9500 216° Southwest 90 104 2,500 1,260 Climbing Toronto Center
11:34PM 43.1167 -79.9833 236° Southwest 90 104 3,900 1,200 Climbing Toronto Center
11:35PM 43.1000 -79.9833 180° South 90 104 5,000 1,200 Climbing Toronto Center
11:36PM 43.0667 -80.0000 200° South 90 104 6,300 1,200 Climbing Toronto Center
11:37PM 43.0500 -80.0167 216° Southwest 90 104 7,400 840 Climbing Toronto Center
11:38PM 43.0333 -80.0167 180° South 90 104 8,000 300 Climbing Toronto Center
11:39PM 43.0000 -80.0500 216° Southwest 130 150 8,100  Climbing Toronto Center
11:40PM 42.9667 -80.0667 200° South 140 161 8,000 -60 Descending Toronto Center
11:41PM 42.9167 -80.1167 216° Southwest 150 173 8,000  Level Toronto Center
11:42PM 42.8833 -80.1333 200° South 150 173 8,000  Level Toronto Center
11:43PM 42.8500 -80.1500 200° South 150 173 8,000  Level Toronto Center
11:44PM 42.8167 -80.1833 216° Southwest 150 173 8,000  Level Toronto Center
11:45PM 42.7667 -80.2000 194° South 150 173 8,100  Climbing Toronto Center
11:46PM 42.7333 -80.2167 200° South 150 173 8,000 -60 Descending Toronto Center
11:47PM 42.7000 -80.2500 216° Southwest 150 173 8,000  Level Toronto Center
11:48PM 42.6667 -80.2667 200° South 150 173 8,000  Level Toronto Center
11:49PM 42.6167 -80.2833 194° South 150 173 8,000  Level Toronto Center
11:50PM 42.5833 -80.3167 216° Southwest 150 173 8,000  Level Toronto Center
11:51PM 42.5500 -80.3333 200° South 150 173 8,100  Climbing Toronto Center
11:52PM 42.5167 -80.3500 200° South 150 173 8,000 -60 Descending Toronto Center
11:53PM 42.4667 -80.4000 216° Southwest 150 173 8,000  Level Toronto Center
11:54PM 42.4333 -80.4167 200° South 150 173 8,000  Level Toronto Center
11:55PM 42.4000 -80.4500 216° Southwest 150 173 8,000  Level Toronto Center
11:56PM 42.3667 -80.4667 200° South 140 161 8,100  Climbing Toronto Center
11:57PM 42.3333 -80.5167 228° Southwest 150 173 8,100 -60 Level Toronto Center
11:58PM 42.3058 -80.5494 221° Southwest 159 183 8,000 -60 Descending Cleveland Center
11:59PM 42.2664 -80.5692 200° South 147 169 8,000  Level Cleveland Center
12:00AM 42.2308 -80.5917 205° Southwest 152 175 8,000  Level Cleveland Center
12:01AM 42.1975 -80.6139 206° Southwest 152 175 8,000  Level Cleveland Center
12:02AM 42.1581 -80.6364 203° Southwest 152 175 8,000  Level Cleveland Center
12:03AM 42.1206 -80.6617 207° Southwest 152 175 8,000  Level Cleveland Center
12:04AM 42.0828 -80.6867 206° Southwest 157 181 8,000  Level Cleveland Center
12:05AM 42.0494 -80.7061 203° Southwest 152 175 8,000  Level Cleveland Center
12:06AM 42.0119 -80.7314 207° Southwest 152 175 8,000  Level Cleveland Center
12:07AM 41.9764 -80.7536 205° Southwest 152 175 8,000  Level Cleveland Center
12:08AM 41.9389 -80.7814 209° Southwest 152 175 8,000  Level Cleveland Center
12:09AM 41.8972 -80.8064 204° Southwest 152 175 8,100  Climbing Cleveland Center
12:10AM 41.8617 -80.8286 205° Southwest 152 175 8,100  Level Cleveland Center
12:11AM 41.8219 -80.8506 202° Southwest 152 175 8,100  Level Cleveland Center
12:12AM 41.7844 -80.8700 201° Southwest 152 175 8,100  Level Cleveland Center
12:13AM 41.7489 -80.8947 207° Southwest 152 175 8,100  Level Cleveland Center
12:14AM 41.7136 -80.9197 208° Southwest 152 175 8,100  Level Cleveland Center
12:15AM 41.6758 -80.9444 206° Southwest 152 175 8,100  Level Cleveland Center
12:16AM 41.6383 -80.9694 206° Southwest 152 175 8,100  Level Cleveland Center
12:17AM 41.6050 -80.9914 206° Southwest 152 175 8,100  Level Cleveland Center
12:18AM 41.5736 -81.0133 208° Southwest 152 175 8,100  Level Cleveland Center
12:19AM 41.5381 -81.0381 207° Southwest 146 168 8,100  Level Cleveland Center
12:20AM 41.5025 -81.0600 205° Southwest 146 168 8,100  Level Cleveland Center
12:21AM 41.4669 -81.0847 208° Southwest 146 168 8,100  Level Cleveland Center
12:22AM 41.4314 -81.1094 208° Southwest 146 168 8,100  Level Cleveland Center
12:23AM 41.3917 -81.1367 207° Southwest 146 168 8,100 -240 Level Cleveland Center
12:24AM 41.3478 -81.1472 190° South 153 176 7,700 -600 Descending Cleveland Center
12:25AM 41.3019 -81.1581 190° South 159 183 7,000 -780 Descending Cleveland Center
12:26AM 41.2581 -81.1658 188° South 164 189 6,200 -780 Descending Cleveland Center
12:27AM 41.2142 -81.1794 193° South 164 189 5,500 -840 Descending Cleveland Center
12:28AM 41.1683 -81.1872 187° South 164 189 4,600 -780 Descending Cleveland Center
12:29AM 41.1203 -81.2006 192° South 164 189 4,000 -600 Descending Cleveland Center
12:30AM 41.0764 -81.2139 193° South 164 189 3,400 -540 Descending Cleveland Center
12:31AM 41.0511 -81.2522 229° Southwest 152 175 3,000 -180 Descending Cleveland Center
12:32AM 41.0261 -81.2850 225° Southwest 146 168 3,100  Climbing Cleveland Center
12:33AM 40.9986 -81.3258 228° Southwest 146 168 3,000 -60 Descending Cleveland Center
12:34AM 40.9817 -81.3533 231° Southwest 118 136 3,000 -300 Level Cleveland Center
12:35AM 40.9586 -81.3831 224° Southwest 113 130 2,500 -600 Descending Cleveland Center
12:36AM 40.9333 -81.4158 224° Southwest 118 136 1,800 -600 Descending Cleveland Center
12:37AM 40.9167 -81.4403 228° Southwest 118 136 1,400 -420 Descending Cleveland Center
12:39AM 40.9151 -81.4436 North  Level Estimated
12:46AM 40.9151 -81.4436 North  Level Estimated